createdAt,value
2022-12-17T00:00:40.304Z,2.93
2022-12-17T00:03:30.126Z,4.50
2022-12-17T00:06:15.805Z,2.60
2022-12-17T00:09:01.118Z,3.43
2022-12-17T00:11:46.590Z,2.67
2022-12-17T00:14:43.493Z,3.23
2022-12-17T00:17:29.347Z,2.80
2022-12-17T00:20:16.271Z,4.10
2022-12-17T00:23:01.705Z,1.90
2022-12-17T00:25:47.222Z,3.97
2022-12-17T00:28:33.192Z,3.63
2022-12-17T00:31:18.800Z,3.07
2022-12-17T00:34:05.462Z,3.47
2022-12-17T00:36:52.521Z,4.90
2022-12-17T00:39:38.076Z,5.43
2022-12-17T00:42:23.465Z,3.77
2022-12-17T00:45:09.244Z,3.63
2022-12-17T00:47:55.398Z,2.50
2022-12-17T00:50:42.339Z,4.03
2022-12-17T00:53:29.251Z,3.63
2022-12-17T00:56:14.574Z,3.27
2022-12-17T00:59:00.327Z,3.00
2022-12-17T01:01:46.006Z,4.20
2022-12-17T01:04:31.340Z,4.93
2022-12-17T01:07:16.830Z,2.20
2022-12-17T01:10:03.958Z,3.70
2022-12-17T01:12:49.339Z,3.40
2022-12-17T01:15:34.806Z,4.20
2022-12-17T01:18:20.484Z,4.13
2022-12-17T01:21:05.837Z,3.57
2022-12-17T01:23:51.582Z,3.23
2022-12-17T01:26:38.612Z,2.73
2022-12-17T01:29:24.170Z,2.30
2022-12-17T01:32:09.614Z,2.57
2022-12-17T01:35:09.817Z,3.20
2022-12-17T01:37:55.288Z,3.40
2022-12-17T01:40:40.467Z,3.87
2022-12-17T01:43:30.956Z,3.43
2022-12-17T01:46:16.994Z,2.57
2022-12-17T01:49:06.572Z,2.67
2022-12-17T01:51:53.961Z,2.07
2022-12-17T01:54:39.492Z,3.20
2022-12-17T01:57:26.707Z,3.13
2022-12-17T02:00:18.859Z,2.07
2022-12-17T02:03:04.336Z,2.73
2022-12-17T02:05:56.776Z,1.90
2022-12-17T02:08:48.866Z,4.00
2022-12-17T02:11:54.848Z,3.30
2022-12-17T02:14:49.837Z,2.20
2022-12-17T02:17:42.309Z,3.43
2022-12-17T02:20:38.781Z,3.13
2022-12-17T02:23:32.477Z,3.13
2022-12-17T02:26:22.728Z,3.80
2022-12-17T02:29:11.638Z,3.17
2022-12-17T02:31:59.624Z,2.73
2022-12-17T02:34:44.884Z,2.50
2022-12-17T02:37:30.222Z,2.93
2022-12-17T02:40:15.897Z,1.90
2022-12-17T02:43:03.515Z,2.73
2022-12-17T02:45:51.915Z,2.97
2022-12-17T02:48:37.669Z,1.93
2022-12-17T02:51:23.688Z,3.03
2022-12-17T02:54:12.805Z,2.27
2022-12-17T02:56:58.213Z,2.97
2022-12-17T02:59:58.366Z,2.70
2022-12-17T03:02:45.341Z,1.50
2022-12-17T03:05:46.371Z,4.10
2022-12-17T03:08:32.643Z,2.93
2022-12-17T03:11:18.306Z,3.53
2022-12-17T03:14:04.105Z,2.03
2022-12-17T03:16:49.743Z,2.97
2022-12-17T03:19:39.021Z,2.90
2022-12-17T03:22:24.747Z,3.07
2022-12-17T03:25:10.566Z,2.63
2022-12-17T03:27:56.454Z,1.63
2022-12-17T03:30:47.151Z,1.87
2022-12-17T03:33:34.577Z,2.90
2022-12-17T03:36:21.658Z,3.70
2022-12-17T03:39:07.400Z,4.10
2022-12-17T03:41:53.007Z,3.37
2022-12-17T03:44:38.653Z,2.57
2022-12-17T03:47:24.374Z,2.63
2022-12-17T03:50:09.843Z,2.50
2022-12-17T03:52:56.550Z,3.27
2022-12-17T03:55:42.028Z,2.70
2022-12-17T03:58:27.725Z,2.93
2022-12-17T04:01:12.906Z,2.13
2022-12-17T04:03:58.452Z,3.63
2022-12-17T04:06:43.695Z,2.63
2022-12-17T04:09:30.464Z,2.97
2022-12-17T04:12:15.534Z,3.37
2022-12-17T04:15:01.054Z,3.23
2022-12-17T04:17:42.991Z,3.33
2022-12-17T04:20:29.539Z,3.23
2022-12-17T04:23:15.123Z,2.27
2022-12-17T04:26:02.128Z,2.93
2022-12-17T04:28:47.562Z,1.63
2022-12-17T04:31:32.930Z,1.63
2022-12-17T04:34:18.655Z,2.83
2022-12-17T04:37:04.229Z,3.20
2022-12-17T04:39:50.171Z,3.73
2022-12-17T04:42:37.315Z,3.63
2022-12-17T04:45:23.938Z,2.50
2022-12-17T04:48:09.317Z,4.10
2022-12-17T04:50:55.168Z,1.80
2022-12-17T04:53:39.782Z,2.93
2022-12-17T04:56:34.054Z,2.13
2022-12-17T04:59:17.429Z,1.53
2022-12-17T05:02:03.075Z,1.43
2022-12-17T05:04:48.559Z,1.30
2022-12-17T05:07:34.233Z,1.70
2022-12-17T05:10:19.611Z,1.43
2022-12-17T05:13:05.171Z,1.50
2022-12-17T05:15:53.393Z,0.50
2022-12-17T05:18:39.303Z,1.17
2022-12-17T05:21:28.063Z,1.20
2022-12-17T05:24:16.051Z,1.97
2022-12-17T05:27:01.701Z,0.50
2022-12-17T05:29:47.081Z,0.93
2022-12-17T05:32:34.061Z,1.23
2022-12-17T05:35:19.546Z,1.40
2022-12-17T05:38:05.026Z,0.93
2022-12-17T05:40:50.792Z,1.40
2022-12-17T05:43:36.702Z,0.63
2022-12-17T05:46:22.933Z,1.13
2022-12-17T05:49:10.041Z,1.07
2022-12-17T05:51:55.441Z,1.27
2022-12-17T05:54:40.987Z,0.63
2022-12-17T05:57:26.642Z,0.90
2022-12-17T06:00:12.039Z,0.70
2022-12-17T06:02:57.557Z,0.97
2022-12-17T06:05:44.651Z,0.73
2022-12-17T06:08:30.230Z,0.47
2022-12-17T06:11:18.784Z,1.10
2022-12-17T06:14:05.747Z,1.73
2022-12-17T06:16:51.249Z,0.93
2022-12-17T06:19:36.497Z,1.53
2022-12-17T06:22:19.859Z,0.80
2022-12-17T06:25:05.328Z,0.90
2022-12-17T06:27:51.085Z,0.77
2022-12-17T06:30:36.950Z,0.33
2022-12-17T06:33:23.847Z,0.90
2022-12-17T06:36:15.440Z,0.63
2022-12-17T06:39:15.312Z,0.57
2022-12-17T06:42:04.186Z,0.90
2022-12-17T06:44:50.729Z,1.17
2022-12-17T06:47:36.778Z,0.90
2022-12-17T06:50:23.373Z,0.40
2022-12-17T06:53:14.035Z,0.57
2022-12-17T06:56:01.098Z,0.50
2022-12-17T06:58:46.585Z,0.67
2022-12-17T07:01:32.356Z,0.30
2022-12-17T07:04:18.092Z,0.80
2022-12-17T07:07:03.606Z,0.67
2022-12-17T07:09:49.431Z,1.17
2022-12-17T07:12:37.033Z,0.60
2022-12-17T07:15:23.054Z,1.13
2022-12-17T07:18:18.773Z,0.80
2022-12-17T07:21:05.057Z,0.70
2022-12-17T07:23:51.129Z,0.80
2022-12-17T07:26:37.139Z,1.63
2022-12-17T07:29:24.219Z,0.77
2022-12-17T07:32:09.710Z,1.70
2022-12-17T07:34:55.397Z,0.67
2022-12-17T07:37:40.740Z,0.73
2022-12-17T07:40:27.500Z,1.70
2022-12-17T07:43:15.481Z,1.73
2022-12-17T07:46:02.679Z,1.87
2022-12-17T07:48:49.560Z,0.90
2022-12-17T07:51:35.165Z,0.87
2022-12-17T07:54:20.598Z,0.60
2022-12-17T07:57:06.186Z,1.20
2022-12-17T07:59:51.965Z,0.93
2022-12-17T08:02:39.511Z,0.60
2022-12-17T08:05:25.851Z,0.70
2022-12-17T08:08:11.236Z,0.83
2022-12-17T08:10:56.670Z,0.30
2022-12-17T08:13:42.201Z,1.13
2022-12-17T08:16:30.173Z,0.80
2022-12-17T08:19:17.226Z,0.67
2022-12-17T08:22:02.724Z,0.73
2022-12-17T08:24:48.201Z,2.23
2022-12-17T08:27:33.811Z,2.57
2022-12-17T08:30:19.282Z,2.00
2022-12-17T08:33:04.912Z,2.87
2022-12-17T08:35:51.711Z,1.97
2022-12-17T08:38:37.457Z,1.70
2022-12-17T08:41:23.369Z,2.47
2022-12-17T08:44:08.827Z,2.13
2022-12-17T08:46:54.280Z,2.10
2022-12-17T08:49:39.962Z,3.03
2022-12-17T08:52:26.602Z,2.70
2022-12-17T08:55:12.202Z,2.20
2022-12-17T08:57:57.772Z,1.27
2022-12-17T09:00:43.392Z,3.07
2022-12-17T09:03:28.872Z,3.10
2022-12-17T09:06:14.261Z,1.30
2022-12-17T09:09:01.293Z,2.13
2022-12-17T09:11:46.259Z,1.77
2022-12-17T09:14:31.805Z,2.53
2022-12-17T09:17:17.299Z,2.40
2022-12-17T09:20:02.952Z,1.70
2022-12-17T09:22:48.187Z,1.67
2022-12-17T09:25:35.363Z,2.50
2022-12-17T09:28:21.168Z,1.77
2022-12-17T09:31:07.305Z,1.57
2022-12-17T09:33:53.315Z,2.17
2022-12-17T09:36:38.966Z,2.57
2022-12-17T09:39:24.450Z,2.60
2022-12-17T09:42:18.606Z,1.73
2022-12-17T09:45:09.753Z,1.43
2022-12-17T09:48:07.759Z,2.07
2022-12-17T09:50:53.516Z,1.77
2022-12-17T09:53:47.164Z,2.40
2022-12-17T09:56:34.134Z,1.63
2022-12-17T09:59:21.211Z,2.17
2022-12-17T10:02:06.929Z,1.73
2022-12-17T10:04:55.866Z,2.60
2022-12-17T10:07:43.784Z,2.13
2022-12-17T10:10:37.607Z,0.90
2022-12-17T10:13:29.681Z,1.67
2022-12-17T10:16:16.709Z,1.80
2022-12-17T10:19:03.333Z,1.10
2022-12-17T10:21:51.862Z,1.43
2022-12-17T10:24:37.333Z,1.80
2022-12-17T10:27:27.920Z,1.53
2022-12-17T10:30:13.358Z,2.60
2022-12-17T10:33:12.128Z,1.27
2022-12-17T10:35:59.239Z,2.27
2022-12-17T10:38:46.913Z,1.40
2022-12-17T10:41:43.354Z,2.03
2022-12-17T10:44:42.513Z,1.90
2022-12-17T10:47:31.440Z,1.50
2022-12-17T10:50:19.566Z,2.50
2022-12-17T10:53:06.623Z,3.03
2022-12-17T10:55:54.002Z,1.97
2022-12-17T10:58:41.955Z,1.87
2022-12-17T11:01:31.758Z,1.67
2022-12-17T11:04:18.012Z,1.50
2022-12-17T11:07:07.779Z,2.47
2022-12-17T11:10:08.621Z,2.20
2022-12-17T11:12:58.497Z,2.47
2022-12-17T11:15:49.641Z,1.80
2022-12-17T11:18:39.279Z,3.13
2022-12-17T11:21:29.729Z,2.13
2022-12-17T11:24:22.431Z,3.03
2022-12-17T11:27:12.039Z,1.40
2022-12-17T11:29:57.443Z,1.70
2022-12-17T11:33:06.779Z,1.80
2022-12-17T11:36:02.859Z,1.80
2022-12-17T11:39:12.828Z,1.63
2022-12-17T11:42:13.129Z,2.50
2022-12-17T11:45:10.156Z,1.43
2022-12-17T11:48:05.458Z,1.03
2022-12-17T11:50:56.501Z,1.73
2022-12-17T11:54:05.037Z,2.17
2022-12-17T11:56:57.134Z,2.27
2022-12-17T11:59:53.972Z,2.27
2022-12-17T12:02:55.895Z,1.13
2022-12-17T12:05:56.624Z,2.13
2022-12-17T12:08:45.009Z,1.53
2022-12-17T12:11:41.883Z,1.30
2022-12-17T12:14:40.582Z,1.37
2022-12-17T12:17:50.913Z,1.47
2022-12-17T12:21:04.677Z,2.07
2022-12-17T12:24:02.219Z,1.70
2022-12-17T12:26:55.021Z,2.33
2022-12-17T12:29:48.317Z,0.97
2022-12-17T12:32:44.549Z,2.07
2022-12-17T12:35:35.147Z,1.67
2022-12-17T12:38:21.136Z,1.53
2022-12-17T12:41:24.675Z,1.50
2022-12-17T12:44:18.718Z,1.23
2022-12-17T12:47:11.997Z,1.67
2022-12-17T12:50:04.328Z,1.10
2022-12-17T12:52:50.565Z,0.73
2022-12-17T12:55:38.213Z,1.10
2022-12-17T12:58:25.256Z,0.80
2022-12-17T13:01:13.339Z,0.87
2022-12-17T13:04:09.113Z,0.30
2022-12-17T13:06:45.718Z,0.40
2022-12-17T13:09:35.420Z,0.77
2022-12-17T13:12:32.343Z,0.20
2022-12-17T13:15:12.316Z,0.10
2022-12-17T13:17:42.759Z,0.10
2022-12-17T13:20:28.099Z,0.40
2022-12-17T13:23:19.479Z,0.00
2022-12-17T13:25:47.674Z,0.10
2022-12-17T13:28:37.075Z,0.33
2022-12-17T13:31:07.308Z,0.10
2022-12-17T13:33:45.208Z,0.20
2022-12-17T13:36:23.143Z,0.10
2022-12-17T13:38:58.463Z,0.57
2022-12-17T13:41:30.889Z,0.00
2022-12-17T13:44:02.833Z,0.17
2022-12-17T13:46:36.938Z,0.10
2022-12-17T13:49:17.471Z,0.13
2022-12-17T13:51:45.658Z,0.10
2022-12-17T13:54:18.738Z,0.63
2022-12-17T13:56:47.710Z,0.00
2022-12-17T13:59:22.257Z,0.07
2022-12-17T14:01:52.751Z,0.10
2022-12-17T14:04:23.983Z,0.00
2022-12-17T14:06:53.948Z,0.00
2022-12-17T14:09:27.808Z,0.10
2022-12-17T14:12:14.083Z,0.40
2022-12-17T14:14:48.083Z,0.73
2022-12-17T14:17:19.861Z,0.00
2022-12-17T14:19:49.795Z,0.17
2022-12-17T14:22:22.254Z,0.10
2022-12-17T14:24:52.585Z,0.50
2022-12-17T14:27:26.069Z,1.80
2022-12-17T14:29:54.516Z,0.30
2022-12-17T14:32:27.285Z,1.27
2022-12-17T14:35:00.398Z,0.13
2022-12-17T14:37:30.031Z,0.60
2022-12-17T14:40:03.103Z,0.40
2022-12-17T14:42:32.699Z,0.40
2022-12-17T14:45:03.552Z,0.57
2022-12-17T14:47:33.734Z,0.37
2022-12-17T14:50:05.949Z,0.30
2022-12-17T14:52:43.433Z,0.30
2022-12-17T14:55:32.509Z,1.37
2022-12-17T14:58:18.868Z,0.20
2022-12-17T15:00:50.634Z,0.50
2022-12-17T15:03:22.601Z,0.20
2022-12-17T15:05:55.979Z,0.30
2022-12-17T15:08:24.518Z,0.30
2022-12-17T15:10:54.113Z,0.97
2022-12-17T15:13:22.272Z,0.93
2022-12-17T15:15:50.444Z,0.90
2022-12-17T15:18:18.596Z,0.77
2022-12-17T15:20:46.969Z,0.70
2022-12-17T15:23:18.564Z,0.93
2022-12-17T15:25:47.671Z,0.70
2022-12-17T15:28:18.154Z,0.90
2022-12-17T15:30:46.973Z,0.87
2022-12-17T15:33:15.284Z,1.33
2022-12-17T15:35:44.043Z,1.73
2022-12-17T15:38:13.845Z,1.30
2022-12-17T15:40:42.354Z,1.73
2022-12-17T15:43:13.774Z,0.90
2022-12-17T15:45:45.625Z,1.27
2022-12-17T15:48:15.858Z,1.67
2022-12-17T15:50:44.047Z,1.93
2022-12-17T15:53:12.318Z,2.03
2022-12-17T15:55:40.903Z,1.10
2022-12-17T15:58:10.764Z,1.33
2022-12-17T16:00:39.024Z,0.80
2022-12-17T16:03:08.706Z,0.90
2022-12-17T16:05:36.952Z,1.00
2022-12-17T16:08:05.139Z,1.07
2022-12-17T16:10:33.272Z,2.03
2022-12-17T16:13:01.463Z,0.60
2022-12-17T16:15:29.730Z,1.03
2022-12-17T16:17:58.290Z,1.77
2022-12-17T16:20:27.868Z,1.43
2022-12-17T16:22:56.013Z,1.33
2022-12-17T16:25:24.155Z,0.93
2022-12-17T16:27:52.357Z,0.77
2022-12-17T16:30:21.006Z,2.83
2022-12-17T16:32:49.235Z,1.17
2022-12-17T16:35:17.414Z,0.83
2022-12-17T16:37:47.032Z,1.60
2022-12-17T16:40:15.268Z,0.97
2022-12-17T16:42:43.419Z,2.67
2022-12-17T16:45:12.035Z,1.60
2022-12-17T16:47:40.198Z,2.70
2022-12-17T16:50:08.690Z,1.00
2022-12-17T16:52:36.877Z,2.00
2022-12-17T16:55:07.167Z,1.73
2022-12-17T16:57:35.426Z,2.60
2022-12-17T17:00:04.560Z,2.00
2022-12-17T17:02:32.914Z,1.70
2022-12-17T17:05:01.373Z,2.07
2022-12-17T17:07:29.520Z,2.20
2022-12-17T17:09:57.821Z,1.40
2022-12-17T17:12:27.810Z,1.53
2022-12-17T17:14:56.028Z,1.80
2022-12-17T17:17:55.848Z,1.97
2022-12-17T17:20:14.248Z,2.10
2022-12-17T17:22:42.667Z,1.07
2022-12-17T17:25:10.943Z,1.40
2022-12-17T17:27:40.493Z,2.23
2022-12-17T17:30:09.828Z,1.63
2022-12-17T17:32:38.067Z,2.13
2022-12-17T17:35:07.157Z,2.00
2022-12-17T17:37:35.307Z,1.63
2022-12-17T17:40:03.540Z,1.33
2022-12-17T17:42:31.651Z,2.00
2022-12-17T17:45:01.323Z,1.83
2022-12-17T17:47:30.250Z,2.57
2022-12-17T17:49:58.468Z,1.73
2022-12-17T17:52:27.042Z,1.23
2022-12-17T17:57:41.069Z,2.00
2022-12-17T18:00:12.536Z,2.53
2022-12-17T18:02:40.869Z,1.00
2022-12-17T18:05:09.914Z,1.33
2022-12-17T18:07:38.144Z,2.47
2022-12-17T18:10:07.248Z,2.20
2022-12-17T18:12:52.757Z,1.50
2022-12-17T18:15:22.285Z,1.13
2022-12-17T18:17:52.535Z,1.87
2022-12-17T18:20:21.032Z,1.20
2022-12-17T18:22:50.609Z,0.80
2022-12-17T18:25:19.273Z,1.77
2022-12-17T18:27:47.369Z,1.83
2022-12-17T18:30:16.503Z,1.60
2022-12-17T18:32:46.272Z,2.07
2022-12-17T18:35:14.488Z,1.27
2022-12-17T18:37:42.703Z,2.17
2022-12-17T18:40:11.585Z,2.40
2022-12-17T18:42:57.294Z,3.27
2022-12-17T18:45:25.522Z,1.93
2022-12-17T18:47:55.073Z,1.63
2022-12-17T18:50:23.237Z,2.20
2022-12-17T18:52:51.403Z,2.47
2022-12-17T18:55:19.788Z,0.70
2022-12-17T18:57:47.917Z,2.13
2022-12-17T19:00:16.386Z,1.77
2022-12-17T19:02:45.445Z,2.20
2022-12-17T19:05:15.113Z,2.17
2022-12-17T19:07:43.233Z,2.83
2022-12-17T19:10:11.922Z,1.43
2022-12-17T19:12:40.043Z,1.07
2022-12-17T19:15:09.528Z,1.43
2022-12-17T19:17:37.695Z,2.40
2022-12-17T19:20:06.504Z,1.77
2022-12-17T19:22:36.139Z,2.47
2022-12-17T19:25:04.539Z,1.60
2022-12-17T19:27:32.724Z,1.83
2022-12-17T19:30:00.881Z,1.63
2022-12-17T19:32:29.041Z,1.43
2022-12-17T19:34:57.226Z,1.90
2022-12-17T19:37:25.374Z,2.17
2022-12-17T19:39:55.062Z,0.93
2022-12-17T19:42:27.604Z,1.17
2022-12-17T19:44:58.781Z,2.10
2022-12-17T19:47:26.948Z,0.63
2022-12-17T19:49:55.063Z,1.50
2022-12-17T19:52:23.269Z,1.97
2022-12-17T19:54:51.398Z,2.33
2022-12-17T19:57:21.042Z,1.30
2022-12-17T19:59:49.281Z,0.73
2022-12-17T20:02:17.592Z,1.80
2022-12-17T20:04:45.852Z,1.97
2022-12-17T20:07:14.125Z,0.50
2022-12-17T20:09:44.665Z,1.37
2022-12-17T20:12:13.270Z,1.13
2022-12-17T20:14:42.879Z,1.47
2022-12-17T20:17:11.164Z,1.40
2022-12-17T20:19:39.407Z,1.27
2022-12-17T20:22:07.844Z,1.53
2022-12-17T20:24:37.437Z,1.40
2022-12-17T20:27:05.935Z,1.13
2022-12-17T20:29:34.127Z,1.37
2022-12-17T20:32:03.935Z,1.33
2022-12-17T20:34:32.275Z,0.97
2022-12-17T20:37:00.410Z,1.47
2022-12-17T20:39:28.679Z,1.53
2022-12-17T20:41:57.520Z,1.87
2022-12-17T20:44:25.714Z,1.60
2022-12-17T20:46:53.854Z,0.77
2022-12-17T20:49:23.529Z,2.63
2022-12-17T20:51:51.624Z,0.70
2022-12-17T20:54:19.942Z,2.23
2022-12-17T20:56:48.097Z,1.13
2022-12-17T20:59:17.832Z,0.63
2022-12-17T21:01:50.400Z,1.33
2022-12-17T21:04:19.673Z,1.30
2022-12-17T21:06:49.414Z,1.87
2022-12-17T21:09:20.972Z,1.40
2022-12-17T21:11:49.522Z,1.47
2022-12-17T21:14:19.267Z,1.27
2022-12-17T21:16:48.057Z,0.80
2022-12-17T21:19:21.856Z,1.30
2022-12-17T21:21:51.631Z,2.13
2022-12-17T21:24:19.849Z,1.67
2022-12-17T21:26:48.369Z,1.13
2022-12-17T21:29:17.077Z,0.63
2022-12-17T21:31:47.223Z,1.03
2022-12-17T21:34:17.401Z,1.00
2022-12-17T21:36:45.654Z,0.90
2022-12-17T21:39:16.644Z,1.47
2022-12-17T21:42:07.180Z,1.40
2022-12-17T21:44:35.556Z,1.40
2022-12-17T21:47:03.711Z,2.00
2022-12-17T21:49:31.999Z,2.10
2022-12-17T21:52:01.287Z,1.50
2022-12-17T21:54:31.082Z,2.37
2022-12-17T21:56:59.268Z,1.23
2022-12-17T21:59:27.464Z,1.13
2022-12-17T22:01:57.677Z,0.63
2022-12-17T22:04:26.557Z,1.27
2022-12-17T22:07:01.910Z,1.67
2022-12-17T22:09:52.280Z,0.70
2022-12-17T22:12:47.584Z,1.53
2022-12-17T22:15:15.724Z,1.40
2022-12-17T22:17:44.918Z,1.77
2022-12-17T22:20:13.332Z,1.00
2022-12-17T22:22:41.437Z,1.17
2022-12-17T22:25:12.254Z,1.10
2022-12-17T22:27:41.071Z,0.90
2022-12-17T22:30:31.153Z,1.37
2022-12-17T22:33:06.049Z,1.70
2022-12-17T22:38:52.855Z,1.13
2022-12-17T22:41:00.069Z,1.03
2022-12-17T22:44:34.290Z,1.00
2022-12-17T22:44:51.479Z,1.33
2022-12-17T22:47:21.229Z,2.23
2022-12-17T22:49:49.977Z,1.30
2022-12-17T22:52:19.378Z,1.77
2022-12-17T22:54:48.796Z,1.07
2022-12-17T22:57:37.550Z,0.77
2022-12-17T23:00:10.926Z,1.33
2022-12-17T23:02:39.123Z,1.17
2022-12-17T23:05:07.946Z,1.70
2022-12-17T23:07:36.177Z,1.23
2022-12-17T23:10:04.552Z,1.20
2022-12-17T23:12:52.153Z,1.17
2022-12-17T23:15:22.614Z,1.30
2022-12-17T23:17:51.209Z,2.30
2022-12-17T23:20:20.156Z,2.50
2022-12-17T23:22:48.368Z,1.73
2022-12-17T23:25:17.507Z,1.83
2022-12-17T23:27:47.893Z,2.20
2022-12-17T23:30:17.897Z,1.67
2022-12-17T23:32:46.180Z,2.27
2022-12-17T23:35:15.563Z,0.73
2022-12-17T23:37:43.927Z,2.33
2022-12-17T23:40:13.762Z,1.07
2022-12-17T23:42:41.992Z,1.33
2022-12-17T23:45:12.241Z,2.07
2022-12-17T23:47:41.080Z,2.70
2022-12-17T23:50:10.782Z,2.07
2022-12-17T23:52:39.522Z,0.73
2022-12-17T23:55:08.585Z,1.77
2022-12-17T23:57:36.747Z,1.13
